createdAt,value
2019-05-23T00:02:25.457Z,6.60
2019-05-23T00:04:58.386Z,4.28
2019-05-23T00:07:31.227Z,7.40
2019-05-23T00:10:05.976Z,8.50
2019-05-23T00:12:39.057Z,9.25
2019-05-23T00:15:14.956Z,7.65
2019-05-23T00:17:46.115Z,7.90
2019-05-23T00:20:17.281Z,9.00
2019-05-23T00:22:47.022Z,10.10
2019-05-23T00:25:17.554Z,11.80
2019-05-23T00:27:47.497Z,10.20
2019-05-23T00:30:19.078Z,10.80
2019-05-23T00:32:51.081Z,9.48
2019-05-23T00:35:21.057Z,10.90
2019-05-23T00:37:52.185Z,11.10
2019-05-23T00:40:23.525Z,8.80
2019-05-23T00:42:53.968Z,10.35
2019-05-23T00:45:24.325Z,7.78
2019-05-23T00:48:02.576Z,7.20
2019-05-23T00:50:33.254Z,6.35
2019-05-23T00:53:06.107Z,6.97
2019-05-23T00:58:07.996Z,4.50
2019-05-23T01:00:39.926Z,8.93
2019-05-23T01:03:11.646Z,7.47
2019-05-23T01:05:41.824Z,9.40
2019-05-23T01:08:12.770Z,7.75
2019-05-23T01:10:44.387Z,8.23
2019-05-23T01:13:15.656Z,9.43
2019-05-23T01:15:46.750Z,8.88
2019-05-23T01:18:18.848Z,9.98
2019-05-23T01:20:50.778Z,6.55
2019-05-23T01:25:52.127Z,10.78
2019-05-23T01:28:21.668Z,10.63
2019-05-23T01:30:53.780Z,9.03
2019-05-23T01:33:25.734Z,8.78
2019-05-23T01:35:56.092Z,6.95
2019-05-23T01:38:26.757Z,7.97
2019-05-23T01:40:56.590Z,6.40
2019-05-23T01:43:26.301Z,8.65
2019-05-23T01:45:56.414Z,7.80
2019-05-23T01:48:26.234Z,8.40
2019-05-23T01:50:57.545Z,8.15
2019-05-23T01:53:28.102Z,9.35
2019-05-23T01:55:58.323Z,8.35
2019-05-23T01:58:29.145Z,11.40
2019-05-23T02:01:00.050Z,9.83
2019-05-23T02:03:30.820Z,12.87
2019-05-23T02:06:00.531Z,12.15
2019-05-23T02:08:30.587Z,11.93
2019-05-23T02:11:00.270Z,10.40
2019-05-23T02:13:30.772Z,11.65
2019-05-23T02:16:00.382Z,14.23
2019-05-23T02:18:31.234Z,12.03
2019-05-23T02:21:02.478Z,11.87
2019-05-23T02:23:32.317Z,14.38
2019-05-23T02:26:02.768Z,14.87
2019-05-23T02:28:33.119Z,14.40
2019-05-23T02:31:04.104Z,13.35
2019-05-23T02:33:34.235Z,12.70
2019-05-23T02:36:04.495Z,11.75
2019-05-23T02:38:35.784Z,11.85
2019-05-23T02:41:07.103Z,11.75
2019-05-23T02:43:36.798Z,8.48
2019-05-23T02:46:08.737Z,7.60
2019-05-23T02:48:40.721Z,7.72
2019-05-23T02:51:14.315Z,10.20
2019-05-23T02:53:44.582Z,11.43
2019-05-23T02:56:17.253Z,9.50
2019-05-23T02:58:51.526Z,9.80
2019-05-23T03:01:23.907Z,10.38
2019-05-23T03:03:55.265Z,12.53
2019-05-23T03:06:25.009Z,11.10
2019-05-23T03:08:54.643Z,10.23
2019-05-23T03:11:25.287Z,10.13
2019-05-23T03:13:58.010Z,12.68
2019-05-23T03:16:30.993Z,11.88
2019-05-23T03:19:08.723Z,11.18
2019-05-23T03:21:39.109Z,8.63
2019-05-23T03:24:09.544Z,9.10
2019-05-23T03:26:41.000Z,8.95
2019-05-23T03:29:11.811Z,6.92
2019-05-23T03:31:43.170Z,7.87
2019-05-23T03:34:14.456Z,9.28
2019-05-23T03:36:44.188Z,11.22
2019-05-23T03:39:14.741Z,12.50
2019-05-23T03:41:45.668Z,9.93
2019-05-23T03:44:15.348Z,10.07
2019-05-23T03:46:46.571Z,12.05
2019-05-23T03:49:18.217Z,10.32
2019-05-23T03:51:48.054Z,11.05
2019-05-23T03:54:18.297Z,12.70
2019-05-23T03:56:49.304Z,10.28
2019-05-23T03:59:18.926Z,11.17
2019-05-23T04:01:49.381Z,10.25
2019-05-23T04:04:19.262Z,11.53
2019-05-23T04:06:49.477Z,11.03
2019-05-23T04:09:19.212Z,10.45
2019-05-23T04:11:48.951Z,11.48
2019-05-23T04:14:20.167Z,7.95
2019-05-23T04:16:49.840Z,10.63
2019-05-23T04:19:19.561Z,10.80
2019-05-23T04:21:49.117Z,12.53
2019-05-23T04:24:19.869Z,13.03
2019-05-23T04:26:50.086Z,13.13
2019-05-23T04:29:20.270Z,11.95
2019-05-23T04:32:06.373Z,11.73
2019-05-23T04:34:21.450Z,12.85
2019-05-23T04:36:51.898Z,11.12
2019-05-23T04:39:21.612Z,11.55
2019-05-23T04:41:51.139Z,12.82
2019-05-23T04:44:21.423Z,11.43
2019-05-23T04:46:56.368Z,12.07
2019-05-23T04:49:28.143Z,12.15
2019-05-23T04:51:58.660Z,11.93
2019-05-23T04:54:31.611Z,10.98
2019-05-23T04:57:02.893Z,11.57
2019-05-23T04:59:32.505Z,12.60
2019-05-23T05:02:02.994Z,12.45
2019-05-23T05:04:32.620Z,9.18
2019-05-23T05:07:02.256Z,10.80
2019-05-23T05:09:33.279Z,12.23
2019-05-23T05:12:04.019Z,12.88
2019-05-23T05:14:33.842Z,10.75
2019-05-23T05:17:04.911Z,14.38
2019-05-23T05:19:34.681Z,13.48
2019-05-23T05:22:05.116Z,14.43
2019-05-23T05:24:34.905Z,13.48
2019-05-23T05:27:06.825Z,13.72
2019-05-23T05:29:36.178Z,13.35
2019-05-23T05:32:08.927Z,13.60
2019-05-23T05:34:38.588Z,13.10
2019-05-23T05:37:08.313Z,12.03
2019-05-23T05:39:38.620Z,12.50
2019-05-23T05:42:09.330Z,11.55
2019-05-23T05:44:40.168Z,12.55
2019-05-23T05:47:10.896Z,11.22
2019-05-23T05:49:42.349Z,11.18
2019-05-23T05:52:13.405Z,10.95
2019-05-23T05:54:43.709Z,10.40
2019-05-23T05:57:13.420Z,9.70
2019-05-23T05:59:43.458Z,9.78
2019-05-23T06:02:14.776Z,9.78
2019-05-23T06:04:45.871Z,10.50
2019-05-23T06:07:17.209Z,9.35
2019-05-23T06:09:48.584Z,10.35
2019-05-23T06:12:18.483Z,10.15
2019-05-23T06:14:48.185Z,10.58
2019-05-23T06:17:19.537Z,9.53
2019-05-23T06:19:49.520Z,8.88
2019-05-23T06:22:20.835Z,8.45
2019-05-23T06:24:54.900Z,8.60
2019-05-23T06:27:22.618Z,8.28
2019-05-23T06:29:52.186Z,7.42
2019-05-23T06:32:24.395Z,7.47
2019-05-23T06:34:55.847Z,7.47
2019-05-23T06:37:25.586Z,7.00
2019-05-23T06:39:57.247Z,7.78
2019-05-23T06:42:26.877Z,8.23
2019-05-23T06:44:57.005Z,7.70
2019-05-23T06:47:26.854Z,7.55
2019-05-23T06:49:56.467Z,8.33
2019-05-23T06:52:26.302Z,7.15
2019-05-23T06:54:59.619Z,7.30
2019-05-23T06:57:27.675Z,8.25
2019-05-23T06:59:57.545Z,7.85
2019-05-23T07:02:31.937Z,7.58
2019-05-23T07:05:00.054Z,7.50
2019-05-23T07:07:31.258Z,7.75
2019-05-23T07:10:02.747Z,8.05
2019-05-23T07:12:33.545Z,7.15
2019-05-23T07:15:04.285Z,7.00
2019-05-23T07:17:34.385Z,6.83
2019-05-23T07:20:06.327Z,6.60
2019-05-23T07:22:37.007Z,6.97
2019-05-23T07:25:07.707Z,6.75
2019-05-23T07:27:37.527Z,7.15
2019-05-23T07:30:10.378Z,7.30
2019-05-23T07:32:40.207Z,6.20
2019-05-23T07:35:09.985Z,6.20
2019-05-23T07:37:39.686Z,5.70
2019-05-23T07:40:09.895Z,6.40
2019-05-23T07:42:39.713Z,5.50
2019-05-23T07:45:11.568Z,5.05
2019-05-23T07:50:10.632Z,5.95
2019-05-23T07:52:40.547Z,6.28
2019-05-23T07:55:11.846Z,5.45
2019-05-23T07:57:41.625Z,5.47
2019-05-23T08:00:13.767Z,4.70
2019-05-23T08:02:44.320Z,5.05
2019-05-23T08:05:14.806Z,5.20
2019-05-23T08:07:44.989Z,5.83
2019-05-23T08:10:30.897Z,5.78
2019-05-23T08:12:47.787Z,5.00
2019-05-23T08:15:18.006Z,4.55
2019-05-23T08:17:48.229Z,4.12
2019-05-23T08:20:18.008Z,5.05
2019-05-23T08:22:48.135Z,4.17
2019-05-23T08:25:17.889Z,3.10
2019-05-23T08:27:48.469Z,4.75
2019-05-23T08:30:18.767Z,5.12
2019-05-23T08:32:48.570Z,5.90
2019-05-23T08:35:18.382Z,5.22
2019-05-23T08:37:48.209Z,4.92
2019-05-23T08:40:18.940Z,4.90
2019-05-23T08:42:49.100Z,4.75
2019-05-23T08:45:19.060Z,4.03
2019-05-23T08:47:54.067Z,4.45
2019-05-23T08:50:24.902Z,3.70
2019-05-23T08:52:55.648Z,4.42
2019-05-23T08:56:00.135Z,4.35
2019-05-23T08:58:43.376Z,4.45
2019-05-23T09:01:36.454Z,4.92
2019-05-23T09:04:04.025Z,4.95
2019-05-23T09:06:35.349Z,5.17
2019-05-23T09:09:27.813Z,4.03
2019-05-23T09:11:40.447Z,5.78
2019-05-23T09:14:11.730Z,4.83
2019-05-23T09:16:42.089Z,4.75
2019-05-23T09:19:11.849Z,5.25
2019-05-23T09:21:41.390Z,5.08
2019-05-23T09:24:13.020Z,4.90
2019-05-23T09:26:42.731Z,4.50
2019-05-23T09:29:12.398Z,5.12
2019-05-23T09:31:42.085Z,5.20
2019-05-23T09:34:12.006Z,5.33
2019-05-23T09:36:42.089Z,5.05
2019-05-23T09:39:13.511Z,4.70
2019-05-23T09:41:43.235Z,4.58
2019-05-23T09:44:12.932Z,4.90
2019-05-23T09:46:42.653Z,5.20
2019-05-23T09:49:13.147Z,4.58
2019-05-23T09:51:43.150Z,5.00
2019-05-23T09:54:13.353Z,5.03
2019-05-23T09:56:43.244Z,5.17
2019-05-23T09:59:13.892Z,4.83
2019-05-23T10:01:43.731Z,4.80
2019-05-23T10:04:13.769Z,4.30
2019-05-23T10:06:46.215Z,4.80
2019-05-23T10:09:16.986Z,3.35
2019-05-23T10:11:46.691Z,4.62
2019-05-23T10:14:17.919Z,5.17
2019-05-23T10:16:49.501Z,4.45
2019-05-23T10:19:40.996Z,4.33
2019-05-23T10:22:11.802Z,4.40
2019-05-23T10:24:41.514Z,4.42
2019-05-23T10:27:12.786Z,4.10
2019-05-23T10:29:42.486Z,4.12
2019-05-23T10:32:13.197Z,3.95
2019-05-23T10:34:43.047Z,3.90
2019-05-23T10:37:14.438Z,3.60
2019-05-23T10:39:47.069Z,3.60
2019-05-23T10:42:16.873Z,4.25
2019-05-23T10:44:46.557Z,4.67
2019-05-23T10:47:16.188Z,4.50
2019-05-23T10:49:45.959Z,4.97
2019-05-23T10:52:17.422Z,3.95
2019-05-23T10:54:47.138Z,4.05
2019-05-23T10:57:16.868Z,4.03
2019-05-23T10:59:46.577Z,3.50
2019-05-23T11:02:17.168Z,4.33
2019-05-23T11:04:47.209Z,4.78
2019-05-23T11:07:17.019Z,3.90
2019-05-23T11:09:46.717Z,4.60
2019-05-23T11:12:16.390Z,4.08
2019-05-23T11:14:46.279Z,3.70
2019-05-23T11:17:16.054Z,4.20
2019-05-23T11:19:45.999Z,4.22
2019-05-23T11:22:15.691Z,4.50
2019-05-23T11:24:45.416Z,4.40
2019-05-23T11:27:15.388Z,4.78
2019-05-23T11:29:45.323Z,4.15
2019-05-23T11:32:19.839Z,4.05
2019-05-23T11:34:47.855Z,3.98
2019-05-23T11:37:17.681Z,3.42
2019-05-23T11:39:51.048Z,3.72
2019-05-23T11:42:21.219Z,4.00
2019-05-23T11:44:50.979Z,4.08
2019-05-23T11:47:20.682Z,4.22
2019-05-23T11:49:50.800Z,4.05
2019-05-23T11:52:21.128Z,3.90
2019-05-23T11:54:50.946Z,4.28
2019-05-23T11:57:20.910Z,3.85
2019-05-23T11:59:50.656Z,3.52
2019-05-23T12:02:22.363Z,4.00
2019-05-23T12:04:54.047Z,3.55
2019-05-23T12:07:25.251Z,3.30
2019-05-23T12:09:55.878Z,3.22
2019-05-23T12:12:25.843Z,4.10
2019-05-23T12:14:56.575Z,4.00
2019-05-23T12:17:28.397Z,4.05
2019-05-23T12:22:28.430Z,3.70
2019-05-23T12:24:58.470Z,4.03
2019-05-23T12:27:29.666Z,3.65
2019-05-23T12:29:59.361Z,3.95
2019-05-23T12:32:29.015Z,4.03
2019-05-23T12:35:10.307Z,3.47
2019-05-23T12:37:30.105Z,3.62
2019-05-23T12:40:00.462Z,3.60
2019-05-23T12:42:30.152Z,3.55
2019-05-23T12:44:59.805Z,3.37
2019-05-23T12:47:31.031Z,3.40
2019-05-23T12:50:02.371Z,3.45
2019-05-23T12:52:33.289Z,3.00
2019-05-23T12:55:03.058Z,3.00
2019-05-23T12:57:33.320Z,3.22
2019-05-23T13:00:04.683Z,2.85
2019-05-23T13:02:34.411Z,3.10
2019-05-23T13:05:07.720Z,2.65
2019-05-23T13:07:37.402Z,2.90
2019-05-23T13:10:08.982Z,2.77
2019-05-23T13:12:38.779Z,2.72
2019-05-23T13:15:09.473Z,3.00
2019-05-23T13:17:39.274Z,2.40
2019-05-23T13:20:09.370Z,2.58
2019-05-23T13:22:39.043Z,2.70
2019-05-23T13:25:08.888Z,2.52
2019-05-23T13:27:39.140Z,2.47
2019-05-23T13:30:08.997Z,2.55
2019-05-23T13:32:38.713Z,2.70
2019-05-23T13:35:09.032Z,2.55
2019-05-23T13:37:52.324Z,2.47
2019-05-23T13:40:11.064Z,2.30
2019-05-23T13:42:40.752Z,2.00
2019-05-23T13:45:11.051Z,2.10
2019-05-23T13:47:40.746Z,2.33
2019-05-23T13:50:10.981Z,1.82
2019-05-23T13:52:40.937Z,1.60
2019-05-23T13:55:10.710Z,1.90
2019-05-23T13:57:40.451Z,2.00
2019-05-23T14:00:12.025Z,1.80
2019-05-23T14:02:42.707Z,1.40
2019-05-23T14:05:18.536Z,1.90
2019-05-23T14:10:14.287Z,1.70
2019-05-23T14:12:44.690Z,1.70
2019-05-23T14:15:15.976Z,1.87
2019-05-23T14:17:46.799Z,2.17
2019-05-23T14:20:16.980Z,1.87
2019-05-23T14:22:48.326Z,1.77
2019-05-23T14:25:18.843Z,1.77
2019-05-23T14:27:50.188Z,1.85
2019-05-23T14:30:21.708Z,1.50
2019-05-23T14:32:53.031Z,1.50
2019-05-23T14:35:24.329Z,1.70
2019-05-23T14:37:55.811Z,1.40
2019-05-23T14:40:25.540Z,1.62
2019-05-23T14:42:56.939Z,1.80
2019-05-23T14:45:28.490Z,1.50
2019-05-23T14:48:01.595Z,1.57
2019-05-23T14:50:33.178Z,1.82
2019-05-23T14:53:06.271Z,1.00
2019-05-23T14:55:35.935Z,1.30
2019-05-23T14:58:05.647Z,1.50
2019-05-23T15:00:35.380Z,1.67
2019-05-23T15:03:05.574Z,1.32
2019-05-23T15:05:35.353Z,1.40
2019-05-23T15:08:05.083Z,1.55
2019-05-23T15:10:35.220Z,1.40
2019-05-23T15:13:05.118Z,1.30
2019-05-23T15:15:35.026Z,1.37
2019-05-23T15:18:12.036Z,1.10
2019-05-23T15:20:41.673Z,0.93
2019-05-23T15:23:11.351Z,1.02
2019-05-23T15:25:41.195Z,1.20
2019-05-23T15:28:11.094Z,1.20
2019-05-23T15:30:40.882Z,1.52
2019-05-23T15:33:10.891Z,1.60
2019-05-23T15:35:40.571Z,1.50
2019-05-23T15:38:10.384Z,1.32
2019-05-23T15:40:40.052Z,1.55
2019-05-23T15:43:10.279Z,1.42
2019-05-23T15:45:41.029Z,1.40
2019-05-23T15:48:10.749Z,1.57
2019-05-23T15:50:42.018Z,1.30
2019-05-23T15:53:13.758Z,1.42
2019-05-23T15:55:45.159Z,1.42
2019-05-23T15:58:15.920Z,1.40
2019-05-23T16:00:47.165Z,1.30
2019-05-23T16:03:18.528Z,1.35
2019-05-23T16:05:49.259Z,1.65
2019-05-23T16:08:19.174Z,1.32
2019-05-23T16:10:49.468Z,1.07
2019-05-23T16:13:20.308Z,1.17
2019-05-23T16:15:50.470Z,1.30
2019-05-23T16:18:20.549Z,1.50
2019-05-23T16:20:50.197Z,1.40
2019-05-23T16:23:19.915Z,1.55
2019-05-23T16:25:49.661Z,1.17
2019-05-23T16:28:19.398Z,1.30
2019-05-23T16:30:49.195Z,1.50
2019-05-23T16:33:18.925Z,1.00
2019-05-23T16:35:48.623Z,1.32
2019-05-23T16:38:18.320Z,1.70
2019-05-23T16:40:48.186Z,1.55
2019-05-23T16:43:19.041Z,1.45
2019-05-23T16:45:48.737Z,1.45
2019-05-23T16:48:18.368Z,1.45
2019-05-23T16:50:49.081Z,1.30
2019-05-23T16:53:18.959Z,1.40
2019-05-23T16:55:50.198Z,1.20
2019-05-23T16:58:21.486Z,1.50
2019-05-23T17:00:52.929Z,1.35
2019-05-23T17:03:24.468Z,1.40
2019-05-23T17:05:55.789Z,1.35
2019-05-23T17:08:27.155Z,1.30
2019-05-23T17:10:58.688Z,1.30
2019-05-23T17:13:29.936Z,1.42
2019-05-23T17:16:00.897Z,1.45
2019-05-23T17:18:31.898Z,1.50
2019-05-23T17:21:03.336Z,1.40
2019-05-23T17:23:34.681Z,1.25
2019-05-23T17:26:05.993Z,1.50
2019-05-23T17:28:37.326Z,1.37
2019-05-23T17:31:09.829Z,1.20
2019-05-23T17:33:39.481Z,1.32
2019-05-23T17:36:09.276Z,1.20
2019-05-23T17:38:38.890Z,1.20
2019-05-23T17:41:09.750Z,1.40
2019-05-23T17:43:40.422Z,1.17
2019-05-23T17:46:10.476Z,1.67
2019-05-23T17:48:40.136Z,1.30
2019-05-23T17:51:12.297Z,1.47
2019-05-23T17:53:42.551Z,1.17
2019-05-23T17:56:14.967Z,1.30
2019-05-23T18:02:13.597Z,1.00
2019-05-23T18:05:14.723Z,1.17
2019-05-23T18:07:44.397Z,1.30
2019-05-23T18:10:14.350Z,0.98
2019-05-23T18:12:44.150Z,1.00
2019-05-23T18:15:15.710Z,1.10
2019-05-23T18:17:50.059Z,1.10
2019-05-23T18:20:19.907Z,1.00
2019-05-23T18:22:50.014Z,0.90
2019-05-23T18:25:21.524Z,0.93
2019-05-23T18:27:52.471Z,1.07
2019-05-23T18:30:24.012Z,1.00
2019-05-23T18:33:00.131Z,1.30
2019-05-23T18:35:32.096Z,0.90
2019-05-23T18:38:02.747Z,0.93
2019-05-23T18:40:35.331Z,1.00
2019-05-23T18:45:36.067Z,0.90
2019-05-23T18:48:06.694Z,1.10
2019-05-23T18:50:38.284Z,1.00
2019-05-23T18:53:10.019Z,1.20
2019-05-23T18:58:09.252Z,1.20
2019-05-23T19:00:44.186Z,1.07
2019-05-23T19:03:14.084Z,1.22
2019-05-23T19:05:45.958Z,1.15
2019-05-23T19:08:17.348Z,1.25
2019-05-23T19:10:47.822Z,1.00
2019-05-23T19:13:20.658Z,1.00
2019-05-23T19:15:51.353Z,1.27
2019-05-23T19:18:23.740Z,1.10
2019-05-23T19:20:54.750Z,1.12
2019-05-23T19:23:27.949Z,1.20
2019-05-23T19:25:58.982Z,1.50
2019-05-23T19:28:29.902Z,1.32
2019-05-23T19:31:02.839Z,1.50
2019-05-23T19:33:33.307Z,1.30
2019-05-23T19:36:03.225Z,1.60
2019-05-23T19:38:32.875Z,1.10
2019-05-23T19:41:03.147Z,1.42
2019-05-23T19:43:33.566Z,1.20
2019-05-23T19:46:06.399Z,1.20
2019-05-23T19:48:37.429Z,1.07
2019-05-23T19:51:07.162Z,1.30
2019-05-23T19:53:38.922Z,1.50
2019-05-23T19:56:08.900Z,1.40
2019-05-23T19:58:38.749Z,1.62
2019-05-23T20:01:09.520Z,1.95
2019-05-23T20:03:39.327Z,1.30
2019-05-23T20:06:10.088Z,1.50
2019-05-23T20:08:39.822Z,1.57
2019-05-23T20:11:09.514Z,1.77
2019-05-23T20:13:40.084Z,1.40
2019-05-23T20:16:10.299Z,1.50
2019-05-23T20:18:40.571Z,1.32
2019-05-23T20:21:10.241Z,1.90
2019-05-23T20:23:40.526Z,1.77
2019-05-23T20:26:10.474Z,1.67
2019-05-23T20:28:40.520Z,1.50
2019-05-23T20:31:10.219Z,2.05
2019-05-23T20:33:40.521Z,1.70
2019-05-23T20:36:12.741Z,1.72
2019-05-23T20:38:42.455Z,2.10
2019-05-23T20:41:12.075Z,1.87
2019-05-23T20:43:41.746Z,2.00
2019-05-23T20:46:12.300Z,1.52
2019-05-23T20:48:43.516Z,1.80
2019-05-23T20:51:13.422Z,2.00
2019-05-23T20:53:43.861Z,1.70
2019-05-23T20:56:13.590Z,1.80
2019-05-23T20:58:43.208Z,2.15
2019-05-23T21:01:16.428Z,2.10
2019-05-23T21:03:46.676Z,1.85
2019-05-23T21:06:16.332Z,2.10
2019-05-23T21:08:45.955Z,2.10
2019-05-23T21:11:15.907Z,2.17
2019-05-23T21:13:45.552Z,2.00
2019-05-23T21:16:15.240Z,2.02
2019-05-23T21:18:44.925Z,2.22
2019-05-23T21:21:14.855Z,2.20
2019-05-23T21:23:44.573Z,2.17
2019-05-23T21:26:14.156Z,2.20
2019-05-23T21:28:43.827Z,2.70
2019-05-23T21:31:15.267Z,2.50
2019-05-23T21:33:44.941Z,2.65
2019-05-23T21:36:14.545Z,2.40
2019-05-23T21:38:44.199Z,2.12
2019-05-23T21:41:13.924Z,2.25
2019-05-23T21:43:44.246Z,2.95
2019-05-23T21:46:14.871Z,2.58
2019-05-23T21:48:44.607Z,2.52
2019-05-23T21:51:14.199Z,2.27
2019-05-23T21:53:44.867Z,2.70
2019-05-23T21:56:14.475Z,2.80
2019-05-23T21:58:44.179Z,3.25
2019-05-23T22:01:17.035Z,3.20
2019-05-23T22:03:48.346Z,2.87
2019-05-23T22:06:19.682Z,2.50
2019-05-23T22:08:50.917Z,3.10
2019-05-23T22:11:20.761Z,2.98
2019-05-23T22:13:50.397Z,3.42
2019-05-23T22:16:20.243Z,3.08
2019-05-23T22:18:49.982Z,2.72
2019-05-23T22:21:20.191Z,2.60
2019-05-23T22:23:50.270Z,2.65
2019-05-23T22:26:20.284Z,2.37
2019-05-23T22:28:49.965Z,3.10
2019-05-23T22:31:20.492Z,2.80
2019-05-23T22:33:52.786Z,2.55
2019-05-23T22:36:23.703Z,2.90
2019-05-23T22:38:53.339Z,2.80
2019-05-23T22:41:23.339Z,2.80
2019-05-23T22:43:53.084Z,3.25
2019-05-23T22:46:23.592Z,3.00
2019-05-23T22:48:54.209Z,3.30
2019-05-23T22:51:23.798Z,3.10
2019-05-23T22:53:53.486Z,3.30
2019-05-23T22:56:23.051Z,3.10
2019-05-23T22:58:52.796Z,3.10
2019-05-23T23:01:24.006Z,2.42
2019-05-23T23:03:53.668Z,3.05
2019-05-23T23:06:23.276Z,3.27
2019-05-23T23:08:52.993Z,2.72
2019-05-23T23:11:22.600Z,2.92
2019-05-23T23:13:52.319Z,3.62
2019-05-23T23:16:21.938Z,3.00
2019-05-23T23:18:52.030Z,3.02
2019-05-23T23:21:21.662Z,2.85
2019-05-23T23:23:51.361Z,3.40
2019-05-23T23:26:21.011Z,3.50
2019-05-23T23:28:50.708Z,3.40
2019-05-23T23:31:20.359Z,3.83
2019-05-23T23:33:50.052Z,2.98
2019-05-23T23:36:19.701Z,2.98
2019-05-23T23:38:49.355Z,2.72
2019-05-23T23:41:18.996Z,2.42
2019-05-23T23:43:58.961Z,3.25
2019-05-23T23:46:22.916Z,2.55
2019-05-23T23:49:00.820Z,3.00
2019-05-23T23:51:33.389Z,3.15
2019-05-23T23:54:04.657Z,3.60
2019-05-23T23:56:35.946Z,4.25
2019-05-23T23:59:05.522Z,3.65
